createdAt,value
2022-09-07T00:00:52.811Z,33.15
2022-09-07T00:03:00.275Z,32.08
2022-09-07T00:05:07.565Z,28.33
2022-09-07T00:07:15.004Z,26.80
2022-09-07T00:09:22.031Z,29.92
2022-09-07T00:11:29.162Z,29.33
2022-09-07T00:13:38.809Z,29.23
2022-09-07T00:15:46.134Z,26.42
2022-09-07T00:17:55.315Z,24.20
2022-09-07T00:20:02.497Z,26.00
2022-09-07T00:22:09.741Z,26.55
2022-09-07T00:24:17.077Z,25.02
2022-09-07T00:26:25.695Z,24.00
2022-09-07T00:28:33.435Z,26.98
2022-09-07T00:30:45.329Z,26.00
2022-09-07T00:32:54.597Z,23.70
2022-09-07T00:35:02.145Z,26.08
2022-09-07T00:37:09.429Z,26.75
2022-09-07T00:39:16.608Z,25.20
2022-09-07T00:41:24.809Z,27.48
2022-09-07T00:43:37.328Z,26.58
2022-09-07T00:45:44.665Z,26.73
2022-09-07T00:47:58.849Z,25.33
2022-09-07T00:50:09.723Z,28.00
2022-09-07T00:52:18.704Z,26.80
2022-09-07T00:54:30.889Z,25.25
2022-09-07T00:56:42.478Z,24.15
2022-09-07T00:58:49.499Z,25.48
2022-09-07T01:00:57.146Z,25.95
2022-09-07T01:03:07.453Z,26.70
2022-09-07T01:05:20.743Z,28.35
2022-09-07T01:07:27.854Z,25.80
2022-09-07T01:09:35.244Z,28.85
2022-09-07T01:11:44.891Z,25.25
2022-09-07T01:13:54.008Z,26.55
2022-09-07T01:16:09.543Z,26.85
2022-09-07T01:18:26.258Z,30.98
2022-09-07T01:20:51.546Z,26.77
2022-09-07T01:23:25.205Z,25.92
2022-09-07T01:25:45.188Z,27.98
2022-09-07T01:28:13.014Z,30.05
2022-09-07T01:30:22.795Z,30.83
2022-09-07T01:32:38.578Z,27.38
2022-09-07T01:34:51.875Z,28.98
2022-09-07T01:37:08.193Z,28.17
2022-09-07T01:39:15.331Z,28.63
2022-09-07T01:41:28.396Z,27.15
2022-09-07T01:43:46.741Z,26.58
2022-09-07T01:45:56.269Z,26.67
2022-09-07T01:48:07.772Z,28.35
2022-09-07T01:50:19.034Z,26.60
2022-09-07T01:52:34.471Z,25.70
2022-09-07T01:54:45.325Z,25.92
2022-09-07T01:56:55.330Z,25.88
2022-09-07T01:59:07.728Z,26.23
2022-09-07T02:01:18.769Z,25.52
2022-09-07T02:03:31.612Z,25.73
2022-09-07T02:05:44.431Z,25.05
2022-09-07T02:07:54.428Z,23.63
2022-09-07T02:10:05.957Z,24.95
2022-09-07T02:12:18.060Z,29.00
2022-09-07T02:14:32.423Z,25.58
2022-09-07T02:16:45.631Z,25.42
2022-09-07T02:18:57.032Z,23.92
2022-09-07T02:21:06.702Z,27.20
2022-09-07T02:23:19.327Z,23.33
2022-09-07T02:25:29.719Z,23.80
2022-09-07T02:27:43.461Z,23.23
2022-09-07T02:29:53.256Z,22.40
2022-09-07T02:32:00.648Z,22.48
2022-09-07T02:34:08.272Z,21.35
2022-09-07T02:36:17.964Z,22.63
2022-09-07T02:38:26.179Z,21.55
2022-09-07T02:40:33.456Z,22.08
2022-09-07T02:42:41.922Z,21.13
2022-09-07T02:44:51.448Z,24.48
2022-09-07T02:47:21.579Z,21.42
2022-09-07T02:49:42.065Z,22.20
2022-09-07T02:51:58.459Z,20.98
2022-09-07T02:54:26.074Z,20.73
2022-09-07T02:56:48.717Z,20.77
2022-09-07T02:59:04.454Z,20.95
2022-09-07T03:01:17.390Z,22.20
2022-09-07T03:03:30.078Z,23.13
2022-09-07T03:05:45.662Z,19.90
2022-09-07T03:07:58.731Z,19.80
2022-09-07T03:10:07.597Z,21.00
2022-09-07T03:12:15.545Z,20.65
2022-09-07T03:14:24.823Z,22.70
2022-09-07T03:16:33.643Z,19.88
2022-09-07T03:18:40.890Z,18.42
2022-09-07T03:20:48.540Z,18.55
2022-09-07T03:22:56.320Z,19.38
2022-09-07T03:25:05.444Z,19.58
2022-09-07T03:27:13.449Z,20.95
2022-09-07T03:29:21.257Z,21.15
2022-09-07T03:31:28.628Z,20.33
2022-09-07T03:33:38.322Z,19.67
2022-09-07T03:35:45.651Z,20.33
2022-09-07T03:37:52.885Z,20.27
2022-09-07T03:40:00.621Z,20.25
2022-09-07T03:42:07.766Z,19.42
2022-09-07T03:44:15.199Z,19.20
2022-09-07T03:46:22.599Z,18.73
2022-09-07T03:48:30.196Z,19.85
2022-09-07T03:50:39.305Z,18.55
2022-09-07T03:52:46.654Z,19.25
2022-09-07T03:54:53.878Z,17.48
2022-09-07T03:57:01.523Z,19.20
2022-09-07T03:59:09.206Z,20.25
2022-09-07T04:01:18.486Z,18.30
2022-09-07T04:03:25.772Z,21.23
2022-09-07T04:05:32.853Z,19.88
2022-09-07T04:07:41.874Z,18.25
2022-09-07T04:09:49.059Z,19.35
2022-09-07T04:11:56.351Z,18.55
2022-09-07T04:14:03.623Z,17.92
2022-09-07T04:16:15.991Z,18.42
2022-09-07T04:18:23.364Z,18.60
2022-09-07T04:20:30.902Z,17.05
2022-09-07T04:22:37.987Z,16.98
2022-09-07T04:24:46.766Z,16.85
2022-09-07T04:26:54.087Z,17.92
2022-09-07T04:29:02.189Z,17.88
2022-09-07T04:31:09.982Z,18.35
2022-09-07T04:33:17.903Z,18.73
2022-09-07T04:35:25.081Z,18.55
2022-09-07T04:37:32.251Z,18.17
2022-09-07T04:39:39.342Z,18.38
2022-09-07T04:41:48.051Z,18.15
2022-09-07T04:43:58.195Z,16.85
2022-09-07T04:46:07.230Z,17.05
2022-09-07T04:48:14.510Z,18.23
2022-09-07T04:50:21.991Z,16.60
2022-09-07T04:52:30.466Z,19.63
2022-09-07T04:54:37.742Z,18.33
2022-09-07T04:56:45.029Z,18.30
2022-09-07T04:58:54.763Z,17.23
2022-09-07T05:01:05.475Z,17.85
2022-09-07T05:03:13.137Z,20.87
2022-09-07T05:05:20.356Z,17.30
2022-09-07T05:07:27.701Z,17.88
2022-09-07T05:09:34.981Z,17.83
2022-09-07T05:11:42.431Z,18.27
2022-09-07T05:13:49.797Z,17.25
2022-09-07T05:15:59.028Z,18.75
2022-09-07T05:18:06.828Z,17.30
2022-09-07T05:20:18.406Z,20.60
2022-09-07T05:22:28.062Z,17.63
2022-09-07T05:24:37.891Z,18.00
2022-09-07T05:26:45.184Z,18.83
2022-09-07T05:31:24.114Z,19.40
2022-09-07T05:36:01.326Z,24.45
2022-09-07T05:38:08.697Z,18.83
2022-09-07T05:40:16.653Z,19.65
2022-09-07T05:42:23.793Z,18.65
2022-09-07T05:44:48.113Z,20.00
2022-09-07T05:46:58.062Z,18.90
2022-09-07T05:49:05.808Z,19.38
2022-09-07T05:51:13.598Z,18.42
2022-09-07T05:53:21.141Z,18.10
2022-09-07T05:55:30.447Z,18.17
2022-09-07T05:57:38.015Z,23.23
2022-09-07T05:59:45.245Z,19.67
2022-09-07T06:01:52.676Z,20.63
2022-09-07T06:04:01.554Z,18.73
2022-09-07T06:06:13.048Z,17.75
2022-09-07T06:08:20.167Z,18.50
2022-09-07T06:12:50.110Z,19.88
2022-09-07T06:14:57.197Z,40.00
2022-09-07T06:17:04.307Z,20.85
2022-09-07T06:19:13.076Z,18.98
2022-09-07T06:21:21.688Z,16.35
2022-09-07T06:23:29.142Z,16.95
2022-09-07T06:25:36.518Z,19.95
2022-09-07T06:27:43.910Z,16.58
2022-09-07T06:29:51.029Z,17.08
2022-09-07T06:34:27.870Z,18.67
2022-09-07T06:36:35.156Z,17.27
2022-09-07T06:38:42.895Z,19.02
2022-09-07T06:40:50.309Z,18.20
2022-09-07T06:42:57.674Z,18.52
2022-09-07T06:45:05.220Z,17.65
2022-09-07T06:47:12.452Z,18.27
2022-09-07T06:49:19.882Z,18.45
2022-09-07T06:51:29.734Z,17.75
2022-09-07T06:53:40.477Z,18.40
2022-09-07T06:55:50.181Z,19.08
2022-09-07T06:57:57.720Z,17.50
2022-09-07T07:00:04.854Z,19.60
2022-09-07T07:02:16.130Z,17.30
2022-09-07T07:04:23.360Z,17.10
2022-09-07T07:06:39.610Z,17.33
2022-09-07T07:08:46.946Z,17.38
2022-09-07T07:10:55.148Z,17.48
2022-09-07T07:13:02.380Z,18.70
2022-09-07T07:15:10.686Z,19.17
2022-09-07T07:17:17.971Z,23.40
2022-09-07T07:19:25.256Z,21.67
2022-09-07T07:21:48.567Z,22.35
2022-09-07T07:24:06.230Z,26.05
2022-09-07T07:26:16.666Z,26.33
2022-09-07T07:30:59.135Z,18.63
2022-09-07T07:33:07.229Z,18.20
2022-09-07T07:35:15.223Z,16.02
2022-09-07T07:37:28.053Z,18.45
2022-09-07T07:42:05.889Z,16.90
2022-09-07T07:44:14.535Z,18.33
2022-09-07T07:46:21.794Z,18.17
2022-09-07T07:48:29.392Z,17.80
2022-09-07T07:50:36.533Z,18.30
2022-09-07T07:53:41.299Z,17.83
2022-09-07T07:55:43.534Z,19.73
2022-09-07T07:57:41.181Z,16.85
2022-09-07T07:59:50.322Z,16.30
2022-09-07T08:01:57.564Z,16.27
2022-09-07T08:04:04.982Z,17.20
2022-09-07T08:06:16.932Z,16.58
2022-09-07T08:10:32.203Z,17.52
2022-09-07T08:12:40.533Z,17.38
2022-09-07T08:14:48.206Z,17.45
2022-09-07T08:16:55.389Z,18.02
2022-09-07T08:19:03.079Z,18.30
2022-09-07T08:21:12.829Z,17.33
2022-09-07T08:23:21.545Z,19.83
2022-09-07T08:25:29.540Z,21.65
2022-09-07T08:27:38.568Z,20.13
2022-09-07T08:29:45.436Z,20.77
2022-09-07T08:31:52.466Z,22.92
2022-09-07T08:33:59.494Z,18.98
2022-09-07T08:36:08.882Z,19.52
2022-09-07T08:38:20.454Z,21.33
2022-09-07T08:40:28.023Z,20.20
2022-09-07T08:42:58.851Z,22.23
2022-09-07T08:45:09.399Z,22.05
2022-09-07T08:47:26.776Z,23.35
2022-09-07T08:49:46.050Z,20.33
2022-09-07T08:51:58.293Z,21.02
2022-09-07T08:54:06.089Z,22.67
2022-09-07T08:56:20.947Z,43.88
2022-09-07T08:58:51.151Z,26.88
2022-09-07T09:03:30.024Z,22.05
2022-09-07T09:05:45.828Z,24.50
2022-09-07T09:08:05.924Z,21.95
2022-09-07T09:10:28.922Z,21.98
2022-09-07T09:12:58.176Z,21.48
2022-09-07T09:15:22.304Z,20.95
2022-09-07T09:17:34.807Z,21.42
2022-09-07T09:20:01.755Z,22.40
2022-09-07T09:22:14.946Z,21.13
2022-09-07T09:24:23.539Z,23.52
2022-09-07T09:26:31.953Z,21.95
2022-09-07T09:28:39.348Z,20.30
2022-09-07T09:30:48.881Z,21.77
2022-09-07T09:33:14.743Z,21.67
2022-09-07T09:35:29.502Z,22.08
2022-09-07T09:37:41.349Z,23.75
2022-09-07T09:39:50.994Z,21.38
2022-09-07T09:42:04.925Z,25.38
2022-09-07T09:44:20.758Z,24.83
2022-09-07T09:46:31.716Z,24.42
2022-09-07T09:48:41.167Z,22.38
2022-09-07T09:55:37.952Z,21.70
2022-09-07T10:00:29.206Z,22.27
2022-09-07T10:05:18.799Z,22.98
2022-09-07T10:07:29.310Z,26.67
2022-09-07T10:09:39.616Z,25.38
2022-09-07T10:14:22.402Z,24.45
2022-09-07T10:16:42.327Z,24.65
2022-09-07T10:19:01.691Z,24.23
2022-09-07T10:21:27.054Z,24.50
2022-09-07T10:23:33.978Z,23.45
2022-09-07T10:25:42.335Z,24.27
2022-09-07T10:27:49.470Z,23.67
2022-09-07T10:29:57.259Z,26.67
2022-09-07T10:32:25.789Z,23.00
2022-09-07T10:34:44.660Z,21.52
2022-09-07T10:37:00.085Z,23.15
2022-09-07T10:39:11.811Z,23.77
2022-09-07T10:41:22.537Z,22.40
2022-09-07T10:43:46.198Z,24.77
2022-09-07T10:49:09.115Z,23.48
2022-09-07T10:53:45.829Z,36.58
2022-09-07T10:56:03.023Z,33.28
2022-09-07T10:59:01.319Z,39.30
2022-09-07T11:01:03.205Z,49.70
2022-09-07T11:03:27.739Z,55.60
2022-09-07T11:05:43.734Z,41.60
2022-09-07T11:08:05.760Z,31.77
2022-09-07T11:10:24.674Z,26.85
2022-09-07T11:12:35.076Z,24.55
2022-09-07T11:14:47.894Z,24.27
2022-09-07T11:16:58.944Z,25.00
2022-09-07T11:21:57.526Z,26.13
2022-09-07T11:24:12.016Z,25.55
2022-09-07T11:26:23.499Z,28.33
2022-09-07T11:30:43.848Z,27.33
2022-09-07T11:33:01.792Z,28.85
2022-09-07T11:35:18.641Z,27.08
2022-09-07T11:37:31.507Z,27.50
2022-09-07T11:39:44.964Z,29.27
2022-09-07T11:41:57.512Z,30.13
2022-09-07T11:44:09.489Z,32.45
2022-09-07T11:46:22.680Z,39.33
2022-09-07T11:48:33.292Z,33.75
2022-09-07T11:50:47.374Z,34.75
2022-09-07T11:52:57.420Z,31.58
2022-09-07T11:55:09.664Z,29.00
2022-09-07T11:57:39.681Z,31.92
2022-09-07T11:59:58.331Z,32.58
2022-09-07T12:02:48.460Z,34.28
2022-09-07T12:05:06.303Z,35.80
2022-09-07T12:07:51.836Z,32.15
2022-09-07T12:10:47.253Z,32.53
2022-09-07T12:13:25.048Z,33.28
2022-09-07T12:15:40.565Z,32.78
2022-09-07T12:18:02.091Z,32.58
2022-09-07T12:20:20.328Z,35.75
2022-09-07T12:22:27.768Z,33.08
2022-09-07T12:24:45.601Z,34.28
2022-09-07T12:26:57.392Z,34.17
2022-09-07T12:29:24.598Z,33.53
2022-09-07T12:32:00.673Z,32.13
2022-09-07T12:34:53.249Z,35.63
2022-09-07T12:37:00.435Z,38.00
2022-09-07T12:39:22.877Z,35.47
2022-09-07T12:41:48.830Z,36.90
2022-09-07T12:44:17.628Z,36.65
2022-09-07T12:46:52.047Z,33.72
2022-09-07T12:49:06.240Z,34.28
2022-09-07T12:51:59.287Z,35.33
2022-09-07T12:53:57.534Z,37.88
2022-09-07T12:56:25.209Z,37.63
2022-09-07T12:58:44.090Z,40.97
2022-09-07T13:01:10.238Z,48.97
2022-09-07T13:06:06.058Z,44.70
2022-09-07T13:08:44.570Z,42.10
2022-09-07T13:10:52.012Z,41.15
2022-09-07T13:13:04.561Z,43.63
2022-09-07T13:15:34.622Z,42.83
2022-09-07T13:17:58.464Z,46.30
2022-09-07T13:20:21.206Z,40.83
2022-09-07T13:22:58.690Z,40.92
2022-09-07T13:25:49.494Z,50.40
2022-09-07T13:27:58.404Z,50.33
2022-09-07T13:30:22.700Z,46.90
2022-09-07T13:35:09.662Z,49.85
2022-09-07T13:37:22.395Z,51.53
2022-09-07T13:39:31.182Z,61.35
2022-09-07T13:41:44.175Z,54.83
2022-09-07T13:43:52.539Z,59.75
2022-09-07T13:46:04.545Z,106.68
2022-09-07T13:48:20.879Z,107.53
2022-09-07T13:50:41.018Z,89.20
2022-09-07T13:53:09.345Z,96.03
2022-09-07T13:55:29.274Z,91.57
2022-09-07T13:57:46.851Z,102.47
2022-09-07T13:59:55.621Z,116.38
2022-09-07T14:02:02.779Z,120.35
2022-09-07T14:04:10.589Z,119.05
2022-09-07T14:06:29.910Z,111.47
2022-09-07T14:08:39.736Z,104.82
2022-09-07T14:10:51.946Z,99.72
2022-09-07T14:15:23.005Z,89.40
2022-09-07T14:17:32.387Z,82.57
2022-09-07T14:19:42.077Z,83.20
2022-09-07T14:22:01.549Z,75.18
2022-09-07T14:24:17.538Z,74.10
2022-09-07T14:26:25.898Z,76.60
2022-09-07T14:28:34.765Z,76.47
2022-09-07T14:30:43.104Z,71.43
2022-09-07T14:32:52.690Z,66.30
2022-09-07T14:34:59.592Z,68.00
2022-09-07T14:37:16.344Z,71.35
2022-09-07T14:39:25.424Z,71.10
2022-09-07T14:41:35.163Z,67.13
2022-09-07T14:43:53.608Z,68.80
2022-09-07T14:46:15.492Z,62.20
2022-09-07T14:48:32.386Z,55.92
2022-09-07T14:50:43.298Z,57.55
2022-09-07T14:55:32.546Z,53.33
2022-09-07T14:57:39.526Z,54.53
2022-09-07T14:59:47.528Z,52.75
2022-09-07T15:01:54.614Z,52.75
2022-09-07T15:04:03.516Z,50.92
2022-09-07T15:07:01.004Z,50.95
2022-09-07T15:08:46.714Z,50.10
2022-09-07T15:13:35.889Z,57.63
2022-09-07T15:15:47.585Z,50.10
2022-09-07T15:17:58.920Z,55.13
2022-09-07T15:20:35.901Z,53.40
2022-09-07T15:22:42.818Z,54.28
2022-09-07T15:24:52.971Z,51.75
2022-09-07T15:27:03.155Z,55.92
2022-09-07T15:29:11.572Z,55.67
2022-09-07T15:33:48.025Z,54.80
2022-09-07T15:35:55.855Z,55.88
2022-09-07T15:38:05.039Z,51.78
2022-09-07T15:40:20.564Z,50.70
2022-09-07T15:44:54.746Z,52.88
2022-09-07T15:49:30.145Z,53.90
2022-09-07T15:54:11.452Z,53.35
2022-09-07T15:56:21.386Z,52.20
2022-09-07T15:58:28.503Z,48.50
2022-09-07T16:00:36.209Z,52.85
2022-09-07T16:05:11.365Z,56.30
2022-09-07T16:07:18.655Z,52.30
2022-09-07T16:09:25.523Z,62.38
2022-09-07T16:11:35.286Z,59.50
2022-09-07T16:13:42.797Z,59.33
2022-09-07T16:15:50.545Z,62.13
2022-09-07T16:17:57.631Z,59.53
2022-09-07T16:20:04.807Z,59.45
2022-09-07T16:23:13.274Z,58.30
2022-09-07T16:24:39.035Z,58.35
2022-09-07T16:26:47.857Z,53.45
2022-09-07T16:28:56.828Z,54.28
2022-09-07T16:31:07.955Z,51.92
2022-09-07T16:33:14.929Z,57.30
2022-09-07T16:35:22.012Z,59.33
2022-09-07T16:37:28.886Z,53.78
2022-09-07T16:39:35.828Z,56.42
2022-09-07T16:41:43.556Z,56.78
2022-09-07T16:43:52.580Z,55.63
2022-09-07T16:46:06.655Z,59.28
2022-09-07T16:48:13.907Z,58.72
2022-09-07T16:50:20.779Z,55.03
2022-09-07T16:52:27.914Z,57.47
2022-09-07T16:54:34.891Z,60.17
2022-09-07T16:56:42.070Z,57.00
2022-09-07T16:58:52.241Z,56.30
2022-09-07T17:00:59.602Z,55.28
2022-09-07T17:03:06.531Z,54.15
2022-09-07T17:05:13.817Z,56.10
2022-09-07T17:07:20.800Z,53.70
2022-09-07T17:09:29.820Z,52.47
2022-09-07T17:11:38.486Z,53.17
2022-09-07T17:13:46.642Z,58.95
2022-09-07T17:15:55.207Z,58.10
2022-09-07T17:18:02.182Z,53.67
2022-09-07T17:20:09.981Z,53.47
2022-09-07T17:22:17.004Z,55.78
2022-09-07T17:24:23.888Z,53.80
2022-09-07T17:26:30.955Z,53.90
2022-09-07T17:28:38.448Z,52.38
2022-09-07T17:30:45.229Z,52.85
2022-09-07T17:32:54.337Z,51.13
2022-09-07T17:35:01.681Z,50.38
2022-09-07T17:37:09.386Z,47.83
2022-09-07T17:39:18.801Z,52.72
2022-09-07T17:41:27.888Z,50.33
2022-09-07T17:43:45.733Z,44.85
2022-09-07T17:45:52.990Z,46.67
2022-09-07T17:48:01.673Z,45.63
2022-09-07T17:50:09.624Z,45.83
2022-09-07T17:52:16.849Z,47.08
2022-09-07T17:54:25.011Z,48.45
2022-09-07T17:56:32.439Z,45.95
2022-09-07T17:58:39.878Z,45.75
2022-09-07T18:00:47.185Z,48.05
2022-09-07T18:02:54.249Z,45.72
2022-09-07T18:05:03.424Z,44.40
2022-09-07T18:07:10.351Z,42.67
2022-09-07T18:09:17.636Z,43.72
2022-09-07T18:13:56.633Z,47.03
2022-09-07T18:16:04.226Z,46.75
2022-09-07T18:18:13.543Z,43.22
2022-09-07T18:20:23.848Z,45.95
2022-09-07T18:22:30.982Z,43.75
2022-09-07T18:24:38.166Z,43.00
2022-09-07T18:26:49.971Z,40.60
2022-09-07T18:29:13.005Z,43.65
2022-09-07T18:31:20.498Z,39.72
2022-09-07T18:33:27.521Z,41.40
2022-09-07T18:35:36.443Z,42.75
2022-09-07T18:37:43.475Z,42.55
2022-09-07T18:39:50.935Z,43.00
2022-09-07T18:41:58.305Z,43.42
2022-09-07T18:45:26.921Z,43.55
2022-09-07T18:46:32.773Z,45.67
2022-09-07T18:48:40.015Z,42.53
2022-09-07T18:50:50.504Z,43.00
2022-09-07T18:53:07.183Z,43.70
2022-09-07T18:55:23.928Z,41.38
2022-09-07T18:57:30.959Z,41.22
2022-09-07T18:59:38.040Z,39.85
2022-09-07T19:01:44.888Z,41.17
2022-09-07T19:03:57.624Z,40.15
2022-09-07T19:06:08.390Z,39.33
2022-09-07T19:08:15.580Z,40.38
2022-09-07T19:10:22.601Z,40.00
2022-09-07T19:12:29.841Z,37.42
2022-09-07T19:14:36.818Z,40.60
2022-09-07T19:16:46.018Z,42.40
2022-09-07T19:18:54.870Z,40.55
2022-09-07T19:21:12.327Z,40.40
2022-09-07T19:23:22.333Z,44.08
2022-09-07T19:25:29.874Z,38.90
2022-09-07T19:27:37.107Z,39.72
2022-09-07T19:29:43.878Z,39.45
2022-09-07T19:32:05.260Z,39.60
2022-09-07T19:34:13.602Z,41.35
2022-09-07T19:36:22.423Z,39.35
2022-09-07T19:38:29.603Z,39.97
2022-09-07T19:40:36.528Z,37.72
2022-09-07T19:42:43.455Z,38.97
2022-09-07T19:44:50.483Z,37.45
2022-09-07T19:46:57.452Z,36.10
2022-09-07T19:49:05.916Z,38.55
2022-09-07T19:51:15.252Z,40.17
2022-09-07T19:53:24.077Z,40.63
2022-09-07T19:55:31.302Z,36.53
2022-09-07T19:57:38.231Z,39.63
2022-09-07T19:59:46.793Z,36.53
2022-09-07T20:01:54.940Z,37.92
2022-09-07T20:04:03.581Z,40.25
2022-09-07T20:06:11.976Z,39.08
2022-09-07T20:08:19.306Z,36.90
2022-09-07T20:10:28.131Z,40.75
2022-09-07T20:12:35.155Z,38.15
2022-09-07T20:14:42.698Z,38.58
2022-09-07T20:16:49.621Z,40.88
2022-09-07T20:18:56.962Z,40.90
2022-09-07T20:21:08.133Z,41.92
2022-09-07T20:23:15.062Z,43.80
2022-09-07T20:25:21.833Z,40.55
2022-09-07T20:27:31.674Z,41.80
2022-09-07T20:29:38.699Z,41.42
2022-09-07T20:31:45.724Z,36.65
2022-09-07T20:33:53.169Z,39.85
2022-09-07T20:36:06.390Z,39.88
2022-09-07T20:38:13.571Z,39.03
2022-09-07T20:40:20.479Z,38.35
2022-09-07T20:42:27.679Z,39.67
2022-09-07T20:44:36.498Z,39.40
2022-09-07T20:46:43.855Z,42.92
2022-09-07T20:48:51.275Z,37.92
2022-09-07T20:51:02.448Z,40.75
2022-09-07T20:53:09.939Z,40.60
2022-09-07T20:55:17.328Z,41.92
2022-09-07T20:57:24.352Z,40.42
2022-09-07T20:59:31.379Z,37.95
2022-09-07T21:01:40.267Z,41.42
2022-09-07T21:03:49.572Z,40.83
2022-09-07T21:05:56.977Z,39.58
2022-09-07T21:08:03.996Z,38.80
2022-09-07T21:10:12.050Z,38.58
2022-09-07T21:12:18.876Z,39.88
2022-09-07T21:14:26.063Z,41.10
2022-09-07T21:16:33.406Z,37.08
2022-09-07T21:18:43.029Z,38.08
2022-09-07T21:21:18.734Z,36.85
2022-09-07T21:23:26.431Z,39.30
2022-09-07T21:25:33.350Z,40.53
2022-09-07T21:27:41.148Z,41.92
2022-09-07T21:29:48.070Z,40.53
2022-09-07T21:31:56.985Z,40.33
2022-09-07T21:34:06.224Z,39.88
2022-09-07T21:36:15.234Z,40.50
2022-09-07T21:38:22.478Z,39.63
2022-09-07T21:40:29.358Z,41.97
2022-09-07T21:42:36.494Z,38.88
2022-09-07T21:44:43.308Z,44.90
2022-09-07T21:46:50.263Z,39.55
2022-09-07T21:48:57.771Z,41.70
2022-09-07T21:51:07.056Z,42.95
2022-09-07T21:53:14.696Z,42.10
2022-09-07T21:55:21.826Z,41.25
2022-09-07T21:57:28.753Z,42.72
2022-09-07T21:59:35.725Z,44.55
2022-09-07T22:01:43.743Z,41.35
2022-09-07T22:03:52.087Z,46.20
2022-09-07T22:05:59.224Z,40.88
2022-09-07T22:08:08.045Z,41.70
2022-09-07T22:10:15.379Z,42.13
2022-09-07T22:12:22.251Z,44.15
2022-09-07T22:14:29.386Z,46.63
2022-09-07T22:16:37.805Z,42.00
2022-09-07T22:18:47.381Z,45.55
2022-09-07T22:21:03.423Z,45.78
2022-09-07T22:23:12.288Z,46.42
2022-09-07T22:25:19.321Z,41.20
2022-09-07T22:27:26.291Z,45.83
2022-09-07T22:29:33.377Z,43.53
2022-09-07T22:31:41.422Z,44.55
2022-09-07T22:33:49.736Z,48.28
2022-09-07T22:35:56.608Z,40.08
2022-09-07T22:38:03.537Z,41.75
2022-09-07T22:40:13.350Z,43.42
2022-09-07T22:42:20.514Z,44.55
2022-09-07T22:44:28.712Z,43.70
2022-09-07T22:46:39.415Z,43.67
2022-09-07T22:48:46.711Z,42.17
2022-09-07T22:50:58.606Z,40.30
2022-09-07T22:55:13.787Z,42.85
2022-09-07T22:57:20.769Z,39.85
2022-09-07T22:59:27.999Z,44.25
2022-09-07T23:01:35.801Z,40.80
2022-09-07T23:03:43.168Z,38.45
2022-09-07T23:05:50.279Z,41.25
2022-09-07T23:07:57.393Z,41.97
2022-09-07T23:10:04.313Z,40.30
2022-09-07T23:12:13.186Z,39.53
2022-09-07T23:14:25.180Z,40.95
2022-09-07T23:16:32.877Z,36.70
2022-09-07T23:18:41.593Z,38.42
2022-09-07T23:20:49.030Z,37.38
2022-09-07T23:22:56.163Z,38.88
2022-09-07T23:25:03.393Z,38.83
2022-09-07T23:27:25.373Z,39.33
2022-09-07T23:32:05.593Z,38.05
2022-09-07T23:34:13.075Z,39.03
2022-09-07T23:36:20.677Z,37.92
2022-09-07T23:38:28.258Z,42.15
2022-09-07T23:40:35.545Z,40.42
2022-09-07T23:42:43.961Z,36.70
2022-09-07T23:44:51.134Z,40.42
2022-09-07T23:46:58.066Z,35.95
2022-09-07T23:49:05.192Z,40.15
2022-09-07T23:51:12.479Z,35.75
2022-09-07T23:53:19.760Z,38.85
2022-09-07T23:55:26.940Z,35.63
2022-09-07T23:57:34.790Z,38.50
2022-09-07T23:59:43.505Z,37.85
